Overseas Boston — WJBU — position and weather

sailwx.info

Track history (hours):
 
Tides and Currents Weather Stations Pressure Air Temp Water Temp Dewpoint Dewpoint Depression Visibility Wind Speed Wind Dir Waves Ship Positions

Overseas Boston

Owner: ASC Leasing VI, Inc., Philadelphia, PA. More information available from US FCC via Universal Licensing System and Coast Guard Vessel Documentation Center.

Last reported at 2015-Sep-03 12:00 UTC. Time now 2015-Sep-03 19:13 UTC.
Position N 54°42' W 140°30'.

Length 183 m; draft 8.8 m.

Type: Tanker. MMSI: 338221000.

Wind from 300 at 19 knots

Waves 1.0 meters (3 feet), 3 second period

Barometer 1020.2 mb
Air temperature 12.8 ° C
Visibility: greater than 10.8 NM
Dewpoint 10.9 ° C

Date/timePositionNaut miles runAvg speedWind from/ knotsBaromVisibWave heightAir tempDewpointWater temp
2015-Sep-03 12:00N 54°42' W 140°30'27713.2 300 / 191020.210.8 1.012.810.9
2015-Sep-02 15:00N 50°48' W 136°24'148 9.9 300 / 301014.610.8 1.013.9
2015-Sep-02 00:00N 48°42' W 134°24'27 8.9 280 / 351009.110.8 1.516.7
2015-Sep-01 21:00N 48°18' W 134°06'24111.5 280 / 321009.710.8 1.516.7
2015-Sep-01 00:00N 44°54' W 131°00'29812.4 250 / 241013.610.8 1.018.9
2015-Aug-31 00:00N 40°42' W 127°24'17213.4 270 / 121019.210.8 0.520.0
2015-Aug-30 11:09N 38°13' W 125°33'17215.4
2015-Aug-30 00:00N 35°48' W 123°36'8612.8 310 / 161015.910.8 0.520.0
2015-Aug-29 17:16N 34°43' W 122°27'1314.9
2015-Aug-29 16:22N 34°34' W 122°15'1914.9
2015-Aug-29 15:07N 34°22' W 121°58'915.2
2015-Aug-29 14:32N 34°16' W 121°50'1514.8
2015-Aug-29 13:33N 34°07' W 121°36'1814.4
2015-Aug-29 12:16N 33°54' W 121°20'1114.2
2015-Aug-29 11:29N 33°47' W 121°09'1313.9
2015-Aug-29 10:32N 33°39' W 120°57'1614.5
2015-Aug-29 09:27N 33°38' W 120°38'1314.5
2015-Aug-29 08:33N 33°38' W 120°22'1414.3
2015-Aug-29 07:33N 33°38' W 120°05'4614.4
2015-Aug-29 04:21N 33°40' W 119°09'1511.9
2015-Aug-29 03:04N 33°39' W 118°51'611.7
2015-Aug-29 02:32N 33°39' W 118°44'1111.6
2015-Aug-29 01:33N 33°38' W 118°30'1211.7
2015-Aug-29 00:33N 33°38' W 118°16'6 6.1
2015-Aug-28 23:31N 33°44' W 118°12'1 0.7
2015-Aug-28 22:28N 33°44' W 118°13'0 0.0
2015-Aug-28 21:19N 33°44' W 118°13'0 0.0
2015-Aug-28 19:31N 33°44' W 118°13'0 0.1
2015-Aug-28 18:22N 33°44' W 118°13'0 0.1
2015-Aug-28 17:22N 33°44' W 118°13'0 0.0
2015-Aug-28 16:28N 33°44' W 118°13'0 0.0
2015-Aug-28 15:31N 33°44' W 118°13'0 0.1
2015-Aug-28 14:28N 33°44' W 118°13'0 0.4
2015-Aug-28 13:32N 33°44' W 118°13'2 2.1
2015-Aug-28 12:25N 33°46' W 118°13'0 0.0
2015-Aug-28 11:24N 33°46' W 118°13'0 0.0
2015-Aug-27 16:27N 33°46' W 118°13'0 0.0
2015-Aug-27 15:33N 33°46' W 118°13'0 0.0
2015-Aug-27 14:33N 33°46' W 118°13'0 0.0
2015-Aug-27 13:33N 33°46' W 118°13'0 0.0
2015-Aug-27 12:33N 33°46' W 118°13'0 0.0
2015-Aug-27 11:33N 33°46' W 118°13'0 0.0
2015-Aug-27 10:33N 33°46' W 118°13'0 0.0
2015-Aug-27 09:33N 33°46' W 118°13'0 0.0
2015-Aug-27 08:33N 33°46' W 118°13'0 0.0
2015-Aug-27 07:33N 33°46' W 118°13'0 0.0
2015-Aug-27 06:33N 33°46' W 118°13'0 0.0
2015-Aug-27 05:33N 33°46' W 118°13'0 0.0
2015-Aug-27 04:33N 33°46' W 118°13'0 0.0
2015-Aug-27 03:15N 33°46' W 118°13'0 0.0
2015-Aug-27 02:33N 33°46' W 118°13'0 0.0
2015-Aug-26 22:33N 33°46' W 118°13'3 2.7
2015-Aug-26 21:33N 33°44' W 118°12'7 7.1
2015-Aug-26 20:33N 33°37' W 118°14'9 9.4
2015-Aug-26 19:33N 33°36' W 118°25'9 9.5
2015-Aug-26 18:33N 33°36' W 118°36'9 9.4
2015-Aug-26 17:33N 33°37' W 118°48'1111.3
2015-Aug-26 16:33N 33°38' W 119°01'1312.3
2015-Aug-26 15:28N 33°38' W 119°17'1310.1
2015-Aug-26 14:11N 33°38' W 119°33'811.0
2015-Aug-26 13:26N 33°37' W 119°43'1314.8
2015-Aug-26 12:34N 33°37' W 119°58'1615.3
2015-Aug-26 11:32N 33°37' W 120°17'1615.0
2015-Aug-26 10:27N 33°37' W 120°37'1314.6
2015-Aug-26 09:33N 33°37' W 120°52'1514.6
2015-Aug-26 08:30N 33°46' W 121°07'1715.6
2015-Aug-26 07:24N 33°57' W 121°23'1315.2
2015-Aug-26 06:33N 34°05' W 121°35'1514.9
2015-Aug-26 05:32N 34°15' W 121°48'1615.1
2015-Aug-26 04:27N 34°26' W 122°03'1314.8
2015-Aug-26 03:33N 34°34' W 122°16'3015.1
2015-Aug-26 01:33N 34°54' W 122°43'1615.4
2015-Aug-26 00:32N 35°04' W 122°58'4 6.4
2015-Aug-26 00:00N 35°06' W 122°54'1738.4 320 / 201015.510.8 0.519.4
2015-Aug-25 23:33N 35°14' W 123°12'1414.3
2015-Aug-25 22:33N 35°26' W 123°21'1615.1
2015-Aug-25 21:28N 35°42' W 123°25'1714.9
2015-Aug-25 20:21N 35°59' W 123°29'3314.8
2015-Aug-25 18:07N 36°31' W 123°37'915.2
2015-Aug-25 17:30N 36°40' W 123°37'2014.1
2015-Aug-25 16:06N 37°00' W 123°37'712.7
2015-Aug-25 15:33N 37°06' W 123°32'1312.6
2015-Aug-25 14:33N 37°16' W 123°22'1312.7
2015-Aug-25 13:33N 37°27' W 123°14'1111.4
2015-Aug-25 12:33N 37°34' W 123°03'10 9.8
2015-Aug-25 11:33N 37°40' W 122°53'10 9.9
2015-Aug-25 10:33N 37°46' W 122°43'1212.0
2015-Aug-25 09:33N 37°49' W 122°28'9 9.1
2015-Aug-25 08:33N 37°58' W 122°26'1010.3
2015-Aug-25 07:33N 38°04' W 122°15'7 3.4
2015-Aug-25 05:28N 38°03' W 122°06'0 0.0
2015-Aug-25 04:22N 38°03' W 122°06'0 0.0
2015-Aug-25 03:22N 38°03' W 122°06'  
Track history (hours):
 
Tides and Currents Weather Stations Pressure Air Temp Water Temp Dewpoint Dewpoint Depression Visibility Wind Speed Wind Dir Waves Ship Positions

Overseas Boston

Owner: ASC Leasing VI, Inc., Philadelphia, PA. More information available from US FCC via Universal Licensing System and Coast Guard Vessel Documentation Center.

Last reported at 2015-Sep-03 12:00 UTC. Time now 2015-Sep-03 19:13 UTC.
Position N 54°42' W 140°30'.

Length 183 m; draft 8.8 m.

Type: Tanker. MMSI: 338221000.

Wind from 300 at 19 knots

Waves 1.0 meters (3 feet), 3 second period

Barometer 1020.2 mb
Air temperature 12.8 ° C
Visibility: greater than 10.8 NM
Dewpoint 10.9 ° C

Date/timePositionNaut miles runAvg speedWind from/ knotsBaromVisibWave heightAir tempDewpointWater temp
2015-Sep-03 12:00N 54°42' W 140°30'27713.2 300 / 191020.210.8 1.012.810.9
2015-Sep-02 15:00N 50°48' W 136°24'148 9.9 300 / 301014.610.8 1.013.9
2015-Sep-02 00:00N 48°42' W 134°24'27 8.9 280 / 351009.110.8 1.516.7
2015-Sep-01 21:00N 48°18' W 134°06'24111.5 280 / 321009.710.8 1.516.7
2015-Sep-01 00:00N 44°54' W 131°00'29812.4 250 / 241013.610.8 1.018.9
2015-Aug-31 00:00N 40°42' W 127°24'17213.4 270 / 121019.210.8 0.520.0
2015-Aug-30 11:09N 38°13' W 125°33'17215.4
2015-Aug-30 00:00N 35°48' W 123°36'8612.8 310 / 161015.910.8 0.520.0
2015-Aug-29 17:16N 34°43' W 122°27'1314.9
2015-Aug-29 16:22N 34°34' W 122°15'1914.9
2015-Aug-29 15:07N 34°22' W 121°58'915.2
2015-Aug-29 14:32N 34°16' W 121°50'1514.8
2015-Aug-29 13:33N 34°07' W 121°36'1814.4
2015-Aug-29 12:16N 33°54' W 121°20'1114.2
2015-Aug-29 11:29N 33°47' W 121°09'1313.9
2015-Aug-29 10:32N 33°39' W 120°57'1614.5
2015-Aug-29 09:27N 33°38' W 120°38'1314.5
2015-Aug-29 08:33N 33°38' W 120°22'1414.3
2015-Aug-29 07:33N 33°38' W 120°05'4614.4
2015-Aug-29 04:21N 33°40' W 119°09'1511.9
2015-Aug-29 03:04N 33°39' W 118°51'611.7
2015-Aug-29 02:32N 33°39' W 118°44'1111.6
2015-Aug-29 01:33N 33°38' W 118°30'1211.7
2015-Aug-29 00:33N 33°38' W 118°16'6 6.1
2015-Aug-28 23:31N 33°44' W 118°12'1 0.7
2015-Aug-28 22:28N 33°44' W 118°13'0 0.0
2015-Aug-28 21:19N 33°44' W 118°13'0 0.0
2015-Aug-28 19:31N 33°44' W 118°13'0 0.1
2015-Aug-28 18:22N 33°44' W 118°13'0 0.1
2015-Aug-28 17:22N 33°44' W 118°13'0 0.0
2015-Aug-28 16:28N 33°44' W 118°13'0 0.0
2015-Aug-28 15:31N 33°44' W 118°13'0 0.1
2015-Aug-28 14:28N 33°44' W 118°13'0 0.4
2015-Aug-28 13:32N 33°44' W 118°13'2 2.1
2015-Aug-28 12:25N 33°46' W 118°13'0 0.0
2015-Aug-28 11:24N 33°46' W 118°13'0 0.0
2015-Aug-27 16:27N 33°46' W 118°13'0 0.0
2015-Aug-27 15:33N 33°46' W 118°13'0 0.0
2015-Aug-27 14:33N 33°46' W 118°13'0 0.0
2015-Aug-27 13:33N 33°46' W 118°13'0 0.0
2015-Aug-27 12:33N 33°46' W 118°13'0 0.0
2015-Aug-27 11:33N 33°46' W 118°13'0 0.0
2015-Aug-27 10:33N 33°46' W 118°13'0 0.0
2015-Aug-27 09:33N 33°46' W 118°13'0 0.0
2015-Aug-27 08:33N 33°46' W 118°13'0 0.0
2015-Aug-27 07:33N 33°46' W 118°13'0 0.0
2015-Aug-27 06:33N 33°46' W 118°13'0 0.0
2015-Aug-27 05:33N 33°46' W 118°13'0 0.0
2015-Aug-27 04:33N 33°46' W 118°13'0 0.0
2015-Aug-27 03:15N 33°46' W 118°13'0 0.0
2015-Aug-27 02:33N 33°46' W 118°13'0 0.0
2015-Aug-26 22:33N 33°46' W 118°13'3 2.7
2015-Aug-26 21:33N 33°44' W 118°12'7 7.1
2015-Aug-26 20:33N 33°37' W 118°14'9 9.4
2015-Aug-26 19:33N 33°36' W 118°25'9 9.5
2015-Aug-26 18:33N 33°36' W 118°36'9 9.4
2015-Aug-26 17:33N 33°37' W 118°48'1111.3
2015-Aug-26 16:33N 33°38' W 119°01'1312.3
2015-Aug-26 15:28N 33°38' W 119°17'1310.1
2015-Aug-26 14:11N 33°38' W 119°33'811.0
2015-Aug-26 13:26N 33°37' W 119°43'1314.8
2015-Aug-26 12:34N 33°37' W 119°58'1615.3
2015-Aug-26 11:32N 33°37' W 120°17'1615.0
2015-Aug-26 10:27N 33°37' W 120°37'1314.6
2015-Aug-26 09:33N 33°37' W 120°52'1514.6
2015-Aug-26 08:30N 33°46' W 121°07'1715.6
2015-Aug-26 07:24N 33°57' W 121°23'1315.2
2015-Aug-26 06:33N 34°05' W 121°35'1514.9
2015-Aug-26 05:32N 34°15' W 121°48'1615.1
2015-Aug-26 04:27N 34°26' W 122°03'1314.8
2015-Aug-26 03:33N 34°34' W 122°16'3015.1
2015-Aug-26 01:33N 34°54' W 122°43'1615.4
2015-Aug-26 00:32N 35°04' W 122°58'4 6.4
2015-Aug-26 00:00N 35°06' W 122°54'1738.4 320 / 201015.510.8 0.519.4
2015-Aug-25 23:33N 35°14' W 123°12'1414.3
2015-Aug-25 22:33N 35°26' W 123°21'1615.1
2015-Aug-25 21:28N 35°42' W 123°25'1714.9
2015-Aug-25 20:21N 35°59' W 123°29'3314.8
2015-Aug-25 18:07N 36°31' W 123°37'915.2
2015-Aug-25 17:30N 36°40' W 123°37'2014.1
2015-Aug-25 16:06N 37°00' W 123°37'712.7
2015-Aug-25 15:33N 37°06' W 123°32'1312.6
2015-Aug-25 14:33N 37°16' W 123°22'1312.7
2015-Aug-25 13:33N 37°27' W 123°14'1111.4
2015-Aug-25 12:33N 37°34' W 123°03'10 9.8
2015-Aug-25 11:33N 37°40' W 122°53'10 9.9
2015-Aug-25 10:33N 37°46' W 122°43'1212.0
2015-Aug-25 09:33N 37°49' W 122°28'9 9.1
2015-Aug-25 08:33N 37°58' W 122°26'1010.3
2015-Aug-25 07:33N 38°04' W 122°15'7 3.4
2015-Aug-25 05:28N 38°03' W 122°06'0 0.0
2015-Aug-25 04:22N 38°03' W 122°06'0 0.0
2015-Aug-25 03:22N 38°03' W 122°06'  

Dump ship's entire track history